createdAt,value
2023-01-23T00:01:20.847Z,11.52
2023-01-23T00:03:48.273Z,11.75
2023-01-23T00:06:16.893Z,15.35
2023-01-23T00:08:47.421Z,10.13
2023-01-23T00:11:19.916Z,10.75
2023-01-23T00:13:47.141Z,13.02
2023-01-23T00:16:17.090Z,10.23
2023-01-23T00:18:44.397Z,11.98
2023-01-23T00:21:13.948Z,8.93
2023-01-23T00:23:49.611Z,11.90
2023-01-23T00:26:19.619Z,11.60
2023-01-23T00:28:47.515Z,10.65
2023-01-23T00:31:24.950Z,14.10
2023-01-23T00:34:00.861Z,13.18
2023-01-23T00:36:33.419Z,12.13
2023-01-23T00:39:00.677Z,11.20
2023-01-23T00:41:27.946Z,11.40
2023-01-23T00:43:55.303Z,12.30
2023-01-23T00:46:23.467Z,16.35
2023-01-23T00:48:51.213Z,9.73
2023-01-23T00:51:19.257Z,12.48
2023-01-23T00:53:47.448Z,10.50
2023-01-23T00:56:14.480Z,16.70
2023-01-23T00:58:44.125Z,9.80
2023-01-23T01:01:14.009Z,13.52
2023-01-23T01:03:41.730Z,10.00
2023-01-23T01:06:09.899Z,13.25
2023-01-23T01:08:36.950Z,10.15
2023-01-23T01:11:04.632Z,9.27
2023-01-23T01:13:31.739Z,10.95
2023-01-23T01:16:01.999Z,11.13
2023-01-23T01:18:29.874Z,9.15
2023-01-23T01:20:57.837Z,9.27
2023-01-23T01:23:25.237Z,8.45
2023-01-23T01:25:52.396Z,11.18
2023-01-23T01:28:21.207Z,10.50
2023-01-23T01:30:48.265Z,9.90
2023-01-23T01:33:15.328Z,11.02
2023-01-23T01:35:42.454Z,9.35
2023-01-23T01:38:09.573Z,10.18
2023-01-23T01:40:37.359Z,9.73
2023-01-23T01:43:08.871Z,11.00
2023-01-23T01:46:01.447Z,8.35
2023-01-23T01:48:52.169Z,9.48
2023-01-23T01:51:52.170Z,8.35
2023-01-23T01:54:31.432Z,10.32
2023-01-23T01:57:21.199Z,10.88
2023-01-23T02:00:03.986Z,12.20
2023-01-23T02:02:45.755Z,11.20
2023-01-23T02:05:17.050Z,9.23
2023-01-23T02:07:54.523Z,9.10
2023-01-23T02:10:22.858Z,9.23
2023-01-23T02:12:52.225Z,10.07
2023-01-23T02:15:22.386Z,9.93
2023-01-23T02:17:53.121Z,9.52
2023-01-23T02:20:40.097Z,7.88
2023-01-23T02:23:38.991Z,8.00
2023-01-23T02:26:12.672Z,7.70
2023-01-23T02:28:48.667Z,8.43
2023-01-23T02:31:20.338Z,7.93
2023-01-23T02:33:55.987Z,9.00
2023-01-23T02:36:26.892Z,7.75
2023-01-23T02:39:03.505Z,7.05
2023-01-23T02:41:41.625Z,9.48
2023-01-23T02:44:17.522Z,8.07
2023-01-23T02:46:50.001Z,7.43
2023-01-23T02:49:17.400Z,8.00
2023-01-23T02:51:44.461Z,8.80
2023-01-23T02:54:11.531Z,9.55
2023-01-23T02:56:38.871Z,8.18
2023-01-23T02:59:24.542Z,8.27
2023-01-23T03:01:51.581Z,8.43
2023-01-23T03:04:19.808Z,7.75
2023-01-23T03:06:46.738Z,8.05
2023-01-23T03:09:17.003Z,7.72
2023-01-23T03:11:46.642Z,5.93
2023-01-23T03:14:18.099Z,7.05
2023-01-23T03:16:50.313Z,6.60
2023-01-23T03:19:23.369Z,6.00
2023-01-23T03:21:51.299Z,7.13
2023-01-23T03:24:19.743Z,6.28
2023-01-23T03:26:48.290Z,7.25
2023-01-23T03:29:36.744Z,5.50
2023-01-23T03:32:05.171Z,6.05
2023-01-23T03:34:32.769Z,7.43
2023-01-23T03:37:01.355Z,5.68
2023-01-23T03:39:48.954Z,5.82
2023-01-23T03:42:20.596Z,5.25
2023-01-23T03:44:49.610Z,5.70
2023-01-23T03:47:18.614Z,6.70
2023-01-23T03:49:45.831Z,6.53
2023-01-23T03:52:13.057Z,6.80
2023-01-23T03:54:40.308Z,8.40
2023-01-23T03:57:09.804Z,8.27
2023-01-23T04:00:03.872Z,8.48
2023-01-23T04:02:41.462Z,9.68
2023-01-23T04:05:10.868Z,8.93
2023-01-23T04:07:38.532Z,8.70
2023-01-23T04:10:05.534Z,11.20
2023-01-23T04:12:32.811Z,7.90
2023-01-23T04:15:00.286Z,11.60
2023-01-23T04:17:30.062Z,11.80
2023-01-23T04:19:57.476Z,10.20
2023-01-23T04:22:24.431Z,10.65
2023-01-23T04:24:51.656Z,10.23
2023-01-23T04:27:19.452Z,7.95
2023-01-23T04:29:48.009Z,8.75
2023-01-23T04:32:15.016Z,9.37
2023-01-23T04:34:45.895Z,8.18
2023-01-23T04:37:13.137Z,9.10
2023-01-23T04:39:40.949Z,7.50
2023-01-23T04:42:08.470Z,8.32
2023-01-23T04:44:58.111Z,5.47
2023-01-23T04:47:45.100Z,7.45
2023-01-23T04:50:14.735Z,6.45
2023-01-23T04:52:45.395Z,7.15
2023-01-23T04:55:13.892Z,6.97
2023-01-23T04:57:41.438Z,7.00
2023-01-23T05:00:34.485Z,6.35
2023-01-23T05:03:03.646Z,5.15
2023-01-23T05:05:33.135Z,5.80
2023-01-23T05:08:01.475Z,8.50
2023-01-23T05:10:30.124Z,7.32
2023-01-23T05:13:02.839Z,7.13
2023-01-23T05:15:30.996Z,7.72
2023-01-23T05:17:58.163Z,8.98
2023-01-23T05:20:25.239Z,7.93
2023-01-23T05:22:54.013Z,7.78
2023-01-23T05:25:29.169Z,5.85
2023-01-23T05:27:58.303Z,6.28
2023-01-23T05:30:26.152Z,9.45
2023-01-23T05:33:01.812Z,5.72
2023-01-23T05:35:29.129Z,6.78
2023-01-23T05:37:56.395Z,6.45
2023-01-23T05:40:25.345Z,8.48
2023-01-23T05:43:16.670Z,5.65
2023-01-23T05:46:02.700Z,5.93
2023-01-23T05:48:52.034Z,7.03
2023-01-23T05:51:21.191Z,9.30
2023-01-23T05:53:48.914Z,4.45
2023-01-23T05:56:17.432Z,4.90
2023-01-23T05:59:09.645Z,5.65
2023-01-23T06:01:42.819Z,6.20
2023-01-23T06:04:30.242Z,6.97
2023-01-23T06:07:18.732Z,7.80
2023-01-23T06:09:47.723Z,7.63
2023-01-23T06:12:15.148Z,7.80
2023-01-23T06:14:42.217Z,5.53
2023-01-23T06:17:15.560Z,9.77
2023-01-23T06:19:43.213Z,6.60
2023-01-23T06:22:11.123Z,8.63
2023-01-23T06:24:56.498Z,10.93
2023-01-23T06:27:23.993Z,8.07
2023-01-23T06:29:52.505Z,6.35
2023-01-23T06:32:20.246Z,5.15
2023-01-23T06:34:48.173Z,10.90
2023-01-23T06:37:15.486Z,6.00
2023-01-23T06:42:14.859Z,6.90
2023-01-23T06:44:45.935Z,7.88
2023-01-23T06:47:14.161Z,10.02
2023-01-23T06:49:43.775Z,8.85
2023-01-23T06:52:11.272Z,7.22
2023-01-23T06:54:38.232Z,11.25
2023-01-23T06:57:06.456Z,11.18
2023-01-23T06:59:34.469Z,14.80
2023-01-23T07:04:53.760Z,11.93
2023-01-23T07:07:21.075Z,13.95
2023-01-23T07:09:49.832Z,12.32
2023-01-23T07:12:23.483Z,12.23
2023-01-23T07:14:50.667Z,13.25
2023-01-23T07:17:23.273Z,15.55
2023-01-23T07:19:51.618Z,12.95
2023-01-23T07:22:21.429Z,11.55
2023-01-23T07:24:48.672Z,13.20
2023-01-23T07:27:16.239Z,13.50
2023-01-23T07:29:43.400Z,17.35
2023-01-23T07:32:11.321Z,13.85
2023-01-23T07:34:38.724Z,16.00
2023-01-23T07:37:06.019Z,13.55
2023-01-23T07:39:32.958Z,13.77
2023-01-23T07:42:00.182Z,16.33
2023-01-23T07:44:28.792Z,16.13
2023-01-23T07:46:56.728Z,13.18
2023-01-23T07:49:23.635Z,18.02
2023-01-23T07:51:50.863Z,14.48
2023-01-23T07:54:17.793Z,15.05
2023-01-23T07:56:44.768Z,12.68
2023-01-23T07:59:13.130Z,12.73
2023-01-23T08:01:40.148Z,13.60
2023-01-23T08:04:07.360Z,16.08
2023-01-23T08:06:34.533Z,12.05
2023-01-23T08:09:01.676Z,13.07
2023-01-23T08:11:28.817Z,10.50
2023-01-23T08:13:55.639Z,10.98
2023-01-23T08:16:22.852Z,11.43
2023-01-23T08:18:50.046Z,11.77
2023-01-23T08:21:17.135Z,14.18
2023-01-23T08:23:45.050Z,12.00
2023-01-23T08:26:14.720Z,12.70
2023-01-23T08:28:43.316Z,11.23
2023-01-23T08:31:12.516Z,11.20
2023-01-23T08:36:11.034Z,11.90
2023-01-23T08:38:38.626Z,9.93
2023-01-23T08:41:06.507Z,13.07
2023-01-23T08:43:33.543Z,12.68
2023-01-23T08:46:00.970Z,10.27
2023-01-23T08:48:28.718Z,10.88
2023-01-23T08:51:02.231Z,10.27
2023-01-23T08:53:30.374Z,10.55
2023-01-23T08:56:06.302Z,10.35
2023-01-23T08:58:33.662Z,10.75
2023-01-23T09:01:00.772Z,10.30
2023-01-23T09:03:28.847Z,10.35
2023-01-23T09:05:55.952Z,12.63
2023-01-23T09:08:22.988Z,10.43
2023-01-23T09:10:49.951Z,15.35
2023-01-23T09:13:19.713Z,9.00
2023-01-23T09:15:47.092Z,11.07
2023-01-23T09:18:14.123Z,9.13
2023-01-23T09:20:41.505Z,7.55
2023-01-23T09:23:08.577Z,10.15
2023-01-23T09:25:35.725Z,8.55
2023-01-23T09:28:02.738Z,7.63
2023-01-23T09:30:29.847Z,8.82
2023-01-23T09:32:56.773Z,7.07
2023-01-23T09:35:23.899Z,7.75
2023-01-23T09:38:01.996Z,7.13
2023-01-23T09:40:48.182Z,8.80
2023-01-23T09:43:27.203Z,9.07
2023-01-23T09:46:03.500Z,7.80
2023-01-23T09:48:36.833Z,6.63
2023-01-23T09:51:31.260Z,9.93
2023-01-23T09:54:14.439Z,9.38
2023-01-23T09:56:45.257Z,8.48
2023-01-23T09:59:35.513Z,9.98
2023-01-23T10:02:03.277Z,9.43
2023-01-23T10:04:31.804Z,8.95
2023-01-23T10:07:05.108Z,9.87
2023-01-23T10:09:40.572Z,7.75
2023-01-23T10:12:37.463Z,8.57
2023-01-23T10:15:16.234Z,9.48
2023-01-23T10:18:08.335Z,9.70
2023-01-23T10:20:54.297Z,8.70
2023-01-23T10:23:24.149Z,8.80
2023-01-23T10:25:51.730Z,9.95
2023-01-23T10:28:38.930Z,9.75
2023-01-23T10:31:20.134Z,9.93
2023-01-23T10:34:03.551Z,9.70
2023-01-23T10:36:54.104Z,10.95
2023-01-23T10:39:43.295Z,11.85
2023-01-23T10:42:14.181Z,10.07
2023-01-23T10:44:41.279Z,9.15
2023-01-23T10:47:32.807Z,9.07
2023-01-23T10:50:00.568Z,11.07
2023-01-23T10:52:53.731Z,11.38
2023-01-23T10:55:20.977Z,13.57
2023-01-23T10:57:50.051Z,12.90
2023-01-23T11:00:36.770Z,10.68
2023-01-23T11:03:22.017Z,13.38
2023-01-23T11:05:53.429Z,14.77
2023-01-23T11:08:25.113Z,12.13
2023-01-23T11:10:52.211Z,13.10
2023-01-23T11:13:30.550Z,11.27
2023-01-23T11:15:57.913Z,14.15
2023-01-23T11:18:42.645Z,12.80
2023-01-23T11:21:32.703Z,11.70
2023-01-23T11:24:37.851Z,11.55
2023-01-23T11:27:20.474Z,13.95
2023-01-23T11:29:50.400Z,12.40
2023-01-23T11:32:17.502Z,12.25
2023-01-23T11:34:51.341Z,10.98
2023-01-23T11:37:28.662Z,13.40
2023-01-23T11:40:01.810Z,13.18
2023-01-23T11:42:30.379Z,12.25
2023-01-23T11:45:01.377Z,11.15
2023-01-23T11:47:37.357Z,13.43
2023-01-23T11:50:27.296Z,13.07
2023-01-23T11:53:05.659Z,12.70
2023-01-23T11:56:03.612Z,13.63
2023-01-23T11:58:51.855Z,12.77
2023-01-23T12:01:49.358Z,10.52
2023-01-23T12:04:35.403Z,11.60
2023-01-23T12:07:18.422Z,11.38
2023-01-23T12:10:05.681Z,10.80
2023-01-23T12:12:40.878Z,11.30
2023-01-23T12:16:02.157Z,13.60
2023-01-23T12:18:59.075Z,12.07
2023-01-23T12:21:44.358Z,16.65
2023-01-23T12:24:18.896Z,15.63
2023-01-23T12:27:01.820Z,14.30
2023-01-23T12:30:06.676Z,13.73
2023-01-23T12:32:51.957Z,17.98
2023-01-23T12:35:19.106Z,17.77
2023-01-23T12:38:11.708Z,14.35
2023-01-23T12:40:46.535Z,13.13
2023-01-23T12:43:19.589Z,11.73
2023-01-23T12:46:06.156Z,13.68
2023-01-23T12:48:41.124Z,13.70
2023-01-23T12:51:18.901Z,13.05
2023-01-23T12:53:51.529Z,12.30
2023-01-23T12:56:24.344Z,12.88
2023-01-23T12:59:09.559Z,11.35
2023-01-23T13:01:55.553Z,13.05
2023-01-23T13:04:58.069Z,12.73
2023-01-23T13:07:51.211Z,12.35
2023-01-23T13:11:03.974Z,14.20
2023-01-23T13:13:31.765Z,12.15
2023-01-23T13:16:11.718Z,12.02
2023-01-23T13:18:58.496Z,11.77
2023-01-23T13:21:44.181Z,12.27
2023-01-23T13:25:04.517Z,12.90
2023-01-23T13:27:55.918Z,13.73
2023-01-23T13:30:23.448Z,13.27
2023-01-23T13:32:51.976Z,12.65
2023-01-23T13:35:53.095Z,14.85
2023-01-23T13:38:23.113Z,10.57
2023-01-23T13:41:05.249Z,12.95
2023-01-23T13:43:51.302Z,10.30
2023-01-23T14:21:42.660Z,14.60
2023-01-23T14:27:51.286Z,12.82
2023-01-23T14:30:24.843Z,14.80
2023-01-23T14:32:52.409Z,15.65
2023-01-23T14:35:31.643Z,15.20
2023-01-23T14:38:08.044Z,13.20
2023-01-23T14:40:49.216Z,14.18
2023-01-23T14:43:21.632Z,11.45
2023-01-23T14:45:55.744Z,12.25
2023-01-23T14:48:22.690Z,14.55
2023-01-23T14:50:49.763Z,11.10
2023-01-23T14:53:17.059Z,12.95
2023-01-23T14:55:47.520Z,12.82
2023-01-23T14:58:22.627Z,13.65
2023-01-23T15:00:51.086Z,16.13
2023-01-23T15:03:38.585Z,14.73
2023-01-23T15:06:20.692Z,13.00
2023-01-23T15:08:48.841Z,13.25
2023-01-23T15:11:17.972Z,13.05
2023-01-23T15:14:01.528Z,17.17
2023-01-23T15:16:34.172Z,13.55
2023-01-23T15:19:21.054Z,13.93
2023-01-23T15:21:48.664Z,12.52
2023-01-23T15:24:15.653Z,11.43
2023-01-23T15:27:00.136Z,11.18
2023-01-23T15:29:27.386Z,10.48
2023-01-23T15:31:55.801Z,11.68
2023-01-23T15:34:26.592Z,12.27
2023-01-23T15:37:11.763Z,12.35
2023-01-23T15:39:58.577Z,10.55
2023-01-23T15:42:35.843Z,12.25
2023-01-23T15:45:03.954Z,11.77
2023-01-23T15:47:32.381Z,13.73
2023-01-23T15:50:03.172Z,10.98
2023-01-23T15:52:44.944Z,11.65
2023-01-23T15:55:13.029Z,11.45
2023-01-23T15:57:40.229Z,13.20
2023-01-23T16:00:17.782Z,14.48
2023-01-23T16:02:55.696Z,14.82
2023-01-23T16:05:26.659Z,21.98
2023-01-23T16:07:55.325Z,13.57
2023-01-23T16:10:23.395Z,11.37
2023-01-23T16:12:52.942Z,11.20
2023-01-23T16:15:25.216Z,12.27
2023-01-23T16:17:52.886Z,13.02
2023-01-23T16:20:29.132Z,10.52
2023-01-23T16:23:01.873Z,11.27
2023-01-23T16:25:45.714Z,10.93
2023-01-23T16:28:21.836Z,12.02
2023-01-23T16:30:50.944Z,9.32
2023-01-23T16:33:18.548Z,10.45
2023-01-23T16:35:46.762Z,11.18
2023-01-23T16:38:29.014Z,9.00
2023-01-23T16:40:59.722Z,11.35
2023-01-23T16:43:27.641Z,11.15
2023-01-23T16:45:56.583Z,14.80
2023-01-23T16:48:27.526Z,11.15
2023-01-23T16:51:00.953Z,11.50
2023-01-23T16:53:31.805Z,10.07
2023-01-23T16:56:01.348Z,10.38
2023-01-23T16:58:32.972Z,13.52
2023-01-23T17:01:08.440Z,9.32
2023-01-23T17:03:38.393Z,9.45
2023-01-23T17:06:05.581Z,9.63
2023-01-23T17:08:33.700Z,9.82
2023-01-23T17:11:04.790Z,10.35
2023-01-23T17:13:35.060Z,12.68
2023-01-23T17:16:07.328Z,10.13
2023-01-23T17:18:38.160Z,12.13
2023-01-23T17:21:05.928Z,9.75
2023-01-23T17:23:32.908Z,10.18
2023-01-23T17:26:01.611Z,9.70
2023-01-23T17:28:29.434Z,11.77
2023-01-23T17:31:00.616Z,10.35
2023-01-23T17:33:31.804Z,9.50
2023-01-23T17:36:03.395Z,9.57
2023-01-23T17:38:31.473Z,10.10
2023-01-23T17:40:58.471Z,10.82
2023-01-23T17:43:25.668Z,12.90
2023-01-23T17:45:53.443Z,10.43
2023-01-23T17:48:27.482Z,10.75
2023-01-23T17:50:54.980Z,9.00
2023-01-23T17:53:23.987Z,10.93
2023-01-23T17:55:52.893Z,10.30
2023-01-23T17:58:20.993Z,8.57
2023-01-23T18:00:51.117Z,11.15
2023-01-23T18:03:21.839Z,12.40
2023-01-23T18:05:49.497Z,11.52
2023-01-23T18:08:18.726Z,11.43
2023-01-23T18:10:49.542Z,11.00
2023-01-23T18:13:44.691Z,11.23
2023-01-23T18:16:20.376Z,10.32
2023-01-23T18:18:53.469Z,10.10
2023-01-23T18:21:20.989Z,9.35
2023-01-23T18:23:48.374Z,8.43
2023-01-23T18:26:33.924Z,7.07
2023-01-23T18:29:20.332Z,9.48
2023-01-23T18:32:06.149Z,11.43
2023-01-23T18:35:17.852Z,10.23
2023-01-23T18:37:51.460Z,9.00
2023-01-23T18:40:24.995Z,8.88
2023-01-23T18:43:18.739Z,10.88
2023-01-23T18:45:45.974Z,8.68
2023-01-23T18:48:25.062Z,7.57
2023-01-23T18:51:13.885Z,7.93
2023-01-23T18:53:52.098Z,8.20
2023-01-23T18:56:27.546Z,7.07
2023-01-23T18:59:14.457Z,8.73
2023-01-23T19:01:44.721Z,11.38
2023-01-23T19:04:16.500Z,7.78
2023-01-23T19:06:44.976Z,10.77
2023-01-23T19:09:19.126Z,10.32
2023-01-23T19:12:20.611Z,7.03
2023-01-23T19:15:03.199Z,4.88
2023-01-23T19:17:39.667Z,8.65
2023-01-23T19:20:28.835Z,7.63
2023-01-23T19:23:21.014Z,6.35
2023-01-23T19:25:48.358Z,6.38
2023-01-23T19:28:16.134Z,6.93
2023-01-23T19:30:43.664Z,7.18
2023-01-23T19:33:16.925Z,6.35
2023-01-23T19:35:45.314Z,9.00
2023-01-23T19:38:12.880Z,9.70
2023-01-23T19:40:40.091Z,7.40
2023-01-23T19:43:14.374Z,6.63
2023-01-23T19:45:43.519Z,9.60
2023-01-23T19:48:11.284Z,7.25
2023-01-23T19:50:39.103Z,7.55
2023-01-23T19:53:06.854Z,10.40
2023-01-23T19:55:37.122Z,7.05
2023-01-23T19:58:04.531Z,5.05
2023-01-23T20:00:33.388Z,6.80
2023-01-23T20:03:00.367Z,4.60
2023-01-23T20:05:27.412Z,6.97
2023-01-23T20:07:54.419Z,13.18
2023-01-23T20:10:22.368Z,6.05
2023-01-23T20:12:55.403Z,12.48
2023-01-23T20:15:25.109Z,9.35
2023-01-23T20:17:53.100Z,8.10
2023-01-23T20:20:20.724Z,6.28
2023-01-23T20:22:48.239Z,5.75
2023-01-23T20:25:17.079Z,6.88
2023-01-23T20:27:44.776Z,8.93
2023-01-23T20:30:15.581Z,6.90
2023-01-23T20:32:43.202Z,7.40
2023-01-23T20:35:11.138Z,5.72
2023-01-23T20:37:38.128Z,7.25
2023-01-23T20:40:06.163Z,11.13
2023-01-23T20:42:33.530Z,7.05
2023-01-23T20:45:00.523Z,7.53
2023-01-23T20:47:27.637Z,8.13
2023-01-23T20:49:54.730Z,6.03
2023-01-23T20:52:40.408Z,5.72
2023-01-23T20:55:07.945Z,7.10
2023-01-23T20:57:53.582Z,8.88
2023-01-23T21:00:20.849Z,7.13
2023-01-23T21:02:48.221Z,7.00
2023-01-23T21:05:15.139Z,9.05
2023-01-23T21:07:42.156Z,6.25
2023-01-23T21:10:09.750Z,8.35
2023-01-23T21:12:37.578Z,9.50
2023-01-23T21:15:05.028Z,8.18
2023-01-23T21:17:32.242Z,10.48
2023-01-23T21:19:59.435Z,7.82
2023-01-23T21:22:26.373Z,8.52
2023-01-23T21:24:53.628Z,6.93
2023-01-23T21:27:23.493Z,7.38
2023-01-23T21:29:51.621Z,10.60
2023-01-23T21:32:18.906Z,9.25
2023-01-23T21:34:46.159Z,9.45
2023-01-23T21:37:13.125Z,11.45
2023-01-23T21:39:40.229Z,9.35
2023-01-23T21:42:07.141Z,7.78
2023-01-23T21:44:35.690Z,9.13
2023-01-23T21:47:03.240Z,9.07
2023-01-23T21:49:31.499Z,10.00
2023-01-23T21:51:58.514Z,8.93
2023-01-23T21:54:25.656Z,8.43
2023-01-23T21:56:52.860Z,8.23
2023-01-23T21:59:20.003Z,9.90
2023-01-23T22:01:47.290Z,8.70
2023-01-23T22:04:18.606Z,11.75
2023-01-23T22:06:46.861Z,8.85
2023-01-23T22:09:18.521Z,7.38
2023-01-23T22:11:46.517Z,7.78
2023-01-23T22:14:13.897Z,10.02
2023-01-23T22:17:04.871Z,9.90
2023-01-23T22:19:32.101Z,11.18
2023-01-23T22:21:59.037Z,9.00
2023-01-23T22:24:26.223Z,8.38
2023-01-23T22:26:53.593Z,8.82
2023-01-23T22:29:22.840Z,6.70
2023-01-23T22:31:51.222Z,7.75
2023-01-23T22:34:18.624Z,8.00
2023-01-23T22:36:45.822Z,7.05
2023-01-23T22:39:16.257Z,9.02
2023-01-23T22:41:45.534Z,5.25
2023-01-23T22:44:13.535Z,8.23
2023-01-23T22:46:43.758Z,6.97
2023-01-23T22:49:11.346Z,9.55
2023-01-23T22:51:38.514Z,8.15
2023-01-23T22:54:06.163Z,8.18
2023-01-23T22:56:33.434Z,8.93
2023-01-23T22:59:01.833Z,7.10
2023-01-23T23:01:29.104Z,7.30
2023-01-23T23:03:58.001Z,6.93
2023-01-23T23:06:25.705Z,6.10
2023-01-23T23:08:52.877Z,11.05
2023-01-23T23:11:22.272Z,6.88
2023-01-23T23:13:49.890Z,6.55
2023-01-23T23:16:22.472Z,9.93
2023-01-23T23:18:52.430Z,9.07
2023-01-23T23:21:22.430Z,9.52
2023-01-23T23:23:50.338Z,7.50
2023-01-23T23:26:17.677Z,5.57
2023-01-23T23:28:45.106Z,5.45
2023-01-23T23:31:12.166Z,7.80
2023-01-23T23:33:39.296Z,6.50
2023-01-23T23:36:07.426Z,6.60
2023-01-23T23:38:34.576Z,8.15
2023-01-23T23:41:04.606Z,7.90
2023-01-23T23:43:32.024Z,7.68
2023-01-23T23:46:02.735Z,7.35
2023-01-23T23:48:31.572Z,8.75
2023-01-23T23:51:03.972Z,7.63
2023-01-23T23:53:31.397Z,7.07
2023-01-23T23:55:58.456Z,11.48
2023-01-23T23:58:25.654Z,7.97
